sensor_id;sensor_type;location;lat;lon;timestamp;P1;durP1;ratioP1;P2;durP2;ratioP2
63378;SDS011;49509;54.996;73.270;2022-08-19T00:01:43;3.00;;;3.00;;
63378;SDS011;49509;54.996;73.270;2022-08-19T00:04:12;1.00;;;1.00;;
63378;SDS011;49509;54.996;73.270;2022-08-19T00:06:39;1.25;;;1.00;;
63378;SDS011;49509;54.996;73.270;2022-08-19T00:09:07;1.00;;;1.00;;
63378;SDS011;49509;54.996;73.270;2022-08-19T00:11:33;1.00;;;1.00;;
63378;SDS011;49509;54.996;73.270;2022-08-19T00:14:01;3.50;;;3.50;;
63378;SDS011;49509;54.996;73.270;2022-08-19T00:16:37;1.50;;;1.50;;
63378;SDS011;49509;54.996;73.270;2022-08-19T00:19:09;1.25;;;1.25;;
63378;SDS011;49509;54.996;73.270;2022-08-19T00:21:36;1.00;;;1.00;;
63378;SDS011;49509;54.996;73.270;2022-08-19T00:24:09;1.75;;;1.75;;
63378;SDS011;49509;54.996;73.270;2022-08-19T00:26:36;2.00;;;2.00;;
63378;SDS011;49509;54.996;73.270;2022-08-19T00:29:03;2.00;;;2.00;;
63378;SDS011;49509;54.996;73.270;2022-08-19T00:31:30;1.00;;;1.00;;
63378;SDS011;49509;54.996;73.270;2022-08-19T00:33:58;3.00;;;2.50;;
63378;SDS011;49509;54.996;73.270;2022-08-19T00:36:28;5.00;;;5.00;;
63378;SDS011;49509;54.996;73.270;2022-08-19T00:39:06;2.00;;;2.00;;
63378;SDS011;49509;54.996;73.270;2022-08-19T00:41:32;2.75;;;2.00;;
63378;SDS011;49509;54.996;73.270;2022-08-19T00:46:33;1.25;;;1.25;;
63378;SDS011;49509;54.996;73.270;2022-08-19T00:49:03;2.00;;;2.00;;
63378;SDS011;49509;54.996;73.270;2022-08-19T00:51:32;2.00;;;2.00;;
63378;SDS011;49509;54.996;73.270;2022-08-19T00:53:59;1.50;;;1.50;;
63378;SDS011;49509;54.996;73.270;2022-08-19T00:56:31;3.00;;;3.00;;
63378;SDS011;49509;54.996;73.270;2022-08-19T00:58:59;2.00;;;2.00;;
63378;SDS011;49509;54.996;73.270;2022-08-19T01:01:25;2.00;;;2.00;;
63378;SDS011;49509;54.996;73.270;2022-08-19T01:03:52;3.50;;;2.50;;
63378;SDS011;49509;54.996;73.270;2022-08-19T01:06:28;2.00;;;2.00;;
63378;SDS011;49509;54.996;73.270;2022-08-19T01:08:58;2.50;;;2.50;;
63378;SDS011;49509;54.996;73.270;2022-08-19T01:11:35;2.50;;;2.50;;
63378;SDS011;49509;54.996;73.270;2022-08-19T01:14:02;2.00;;;2.00;;
63378;SDS011;49509;54.996;73.270;2022-08-19T01:16:29;3.00;;;3.00;;
63378;SDS011;49509;54.996;73.270;2022-08-19T01:18:56;2.00;;;2.00;;
63378;SDS011;49509;54.996;73.270;2022-08-19T01:24:00;2.00;;;2.00;;
63378;SDS011;49509;54.996;73.270;2022-08-19T01:26:27;1.00;;;1.00;;
63378;SDS011;49509;54.996;73.270;2022-08-19T01:28:59;1.50;;;1.50;;
63378;SDS011;49509;54.996;73.270;2022-08-19T01:31:36;2.00;;;2.00;;
63378;SDS011;49509;54.996;73.270;2022-08-19T01:34:06;2.00;;;2.00;;
63378;SDS011;49509;54.996;73.270;2022-08-19T01:36:37;3.00;;;3.00;;
63378;SDS011;49509;54.996;73.270;2022-08-19T01:39:06;1.50;;;1.00;;
63378;SDS011;49509;54.996;73.270;2022-08-19T01:41:32;1.50;;;1.50;;
63378;SDS011;49509;54.996;73.270;2022-08-19T01:44:00;1.75;;;1.75;;
63378;SDS011;49509;54.996;73.270;2022-08-19T01:46:29;1.00;;;1.00;;
63378;SDS011;49509;54.996;73.270;2022-08-19T01:48:55;3.00;;;2.00;;
63378;SDS011;49509;54.996;73.270;2022-08-19T01:51:22;1.25;;;1.25;;
63378;SDS011;49509;54.996;73.270;2022-08-19T01:53:48;1.25;;;1.25;;
63378;SDS011;49509;54.996;73.270;2022-08-19T01:56:25;3.00;;;2.00;;
63378;SDS011;49509;54.996;73.270;2022-08-19T01:58:57;2.00;;;2.00;;
63378;SDS011;49509;54.996;73.270;2022-08-19T02:01:24;2.00;;;2.00;;
63378;SDS011;49509;54.996;73.270;2022-08-19T02:03:50;2.25;;;2.25;;
63378;SDS011;49509;54.996;73.270;2022-08-19T02:06:29;2.00;;;2.00;;
63378;SDS011;49509;54.996;73.270;2022-08-19T02:08:56;1.50;;;1.50;;
63378;SDS011;49509;54.996;73.270;2022-08-19T02:11:32;3.00;;;3.00;;
63378;SDS011;49509;54.996;73.270;2022-08-19T02:14:00;3.25;;;2.00;;
63378;SDS011;49509;54.996;73.270;2022-08-19T02:16:29;2.50;;;2.50;;
63378;SDS011;49509;54.996;73.270;2022-08-19T02:18:56;3.00;;;3.00;;
63378;SDS011;49509;54.996;73.270;2022-08-19T02:21:23;3.00;;;3.00;;
63378;SDS011;49509;54.996;73.270;2022-08-19T02:23:50;3.00;;;2.00;;
63378;SDS011;49509;54.996;73.270;2022-08-19T02:26:27;2.50;;;2.50;;
63378;SDS011;49509;54.996;73.270;2022-08-19T02:28:54;2.00;;;2.00;;
63378;SDS011;49509;54.996;73.270;2022-08-19T02:31:21;3.00;;;3.00;;
63378;SDS011;49509;54.996;73.270;2022-08-19T02:33:48;2.00;;;2.00;;
63378;SDS011;49509;54.996;73.270;2022-08-19T02:36:16;2.00;;;1.00;;
63378;SDS011;49509;54.996;73.270;2022-08-19T02:38:43;2.00;;;2.00;;
63378;SDS011;49509;54.996;73.270;2022-08-19T02:41:17;2.00;;;2.00;;
63378;SDS011;49509;54.996;73.270;2022-08-19T02:43:44;3.00;;;1.50;;
63378;SDS011;49509;54.996;73.270;2022-08-19T02:46:13;2.50;;;2.50;;
63378;SDS011;49509;54.996;73.270;2022-08-19T02:48:53;2.75;;;1.50;;
63378;SDS011;49509;54.996;73.270;2022-08-19T02:51:27;5.50;;;5.50;;
63378;SDS011;49509;54.996;73.270;2022-08-19T02:53:56;5.25;;;3.25;;
63378;SDS011;49509;54.996;73.270;2022-08-19T02:56:23;5.25;;;4.00;;
63378;SDS011;49509;54.996;73.270;2022-08-19T02:58:56;3.50;;;3.50;;
63378;SDS011;49509;54.996;73.270;2022-08-19T03:01:32;4.25;;;4.00;;
63378;SDS011;49509;54.996;73.270;2022-08-19T03:03:59;3.75;;;3.00;;
63378;SDS011;49509;54.996;73.270;2022-08-19T03:06:26;4.75;;;3.50;;
63378;SDS011;49509;54.996;73.270;2022-08-19T03:08:56;4.50;;;4.50;;
63378;SDS011;49509;54.996;73.270;2022-08-19T03:11:28;3.25;;;3.25;;
63378;SDS011;49509;54.996;73.270;2022-08-19T03:13:55;3.50;;;3.50;;
63378;SDS011;49509;54.996;73.270;2022-08-19T03:16:29;3.00;;;3.00;;
63378;SDS011;49509;54.996;73.270;2022-08-19T03:18:57;10.75;;;10.50;;
63378;SDS011;49509;54.996;73.270;2022-08-19T03:21:29;10.25;;;9.25;;
63378;SDS011;49509;54.996;73.270;2022-08-19T03:24:06;5.25;;;5.00;;
63378;SDS011;49509;54.996;73.270;2022-08-19T03:26:33;4.50;;;4.00;;
63378;SDS011;49509;54.996;73.270;2022-08-19T03:29:03;1.50;;;1.50;;
63378;SDS011;49509;54.996;73.270;2022-08-19T03:31:33;4.75;;;2.75;;
63378;SDS011;49509;54.996;73.270;2022-08-19T03:33:59;3.00;;;3.00;;
63378;SDS011;49509;54.996;73.270;2022-08-19T03:36:26;6.50;;;4.75;;
63378;SDS011;49509;54.996;73.270;2022-08-19T03:38:59;3.50;;;3.00;;
63378;SDS011;49509;54.996;73.270;2022-08-19T03:41:31;4.00;;;4.00;;
63378;SDS011;49509;54.996;73.270;2022-08-19T03:44:01;2.50;;;2.50;;
63378;SDS011;49509;54.996;73.270;2022-08-19T03:46:29;5.00;;;5.00;;
63378;SDS011;49509;54.996;73.270;2022-08-19T03:48:57;5.75;;;5.75;;
63378;SDS011;49509;54.996;73.270;2022-08-19T03:51:28;4.00;;;4.00;;
63378;SDS011;49509;54.996;73.270;2022-08-19T03:53:57;4.50;;;3.00;;
63378;SDS011;49509;54.996;73.270;2022-08-19T03:56:24;5.75;;;4.25;;
63378;SDS011;49509;54.996;73.270;2022-08-19T03:58:52;7.25;;;6.00;;
63378;SDS011;49509;54.996;73.270;2022-08-19T04:01:19;1.75;;;1.00;;
63378;SDS011;49509;54.996;73.270;2022-08-19T04:03:46;5.00;;;5.00;;
63378;SDS011;49509;54.996;73.270;2022-08-19T04:06:18;6.00;;;5.00;;
63378;SDS011;49509;54.996;73.270;2022-08-19T04:08:48;6.50;;;5.00;;
63378;SDS011;49509;54.996;73.270;2022-08-19T04:11:17;6.75;;;6.25;;
63378;SDS011;49509;54.996;73.270;2022-08-19T04:13:44;6.00;;;4.50;;
63378;SDS011;49509;54.996;73.270;2022-08-19T04:16:11;6.25;;;6.25;;
63378;SDS011;49509;54.996;73.270;2022-08-19T04:18:38;13.50;;;10.25;;
63378;SDS011;49509;54.996;73.270;2022-08-19T04:21:05;7.75;;;6.25;;
63378;SDS011;49509;54.996;73.270;2022-08-19T04:23:34;3.25;;;3.00;;
63378;SDS011;49509;54.996;73.270;2022-08-19T04:26:04;4.00;;;4.00;;
63378;SDS011;49509;54.996;73.270;2022-08-19T04:28:32;2.75;;;2.50;;
63378;SDS011;49509;54.996;73.270;2022-08-19T04:31:01;3.25;;;2.25;;
63378;SDS011;49509;54.996;73.270;2022-08-19T04:33:29;2.25;;;2.25;;
63378;SDS011;49509;54.996;73.270;2022-08-19T04:35:55;2.00;;;2.00;;
63378;SDS011;49509;54.996;73.270;2022-08-19T04:38:29;3.00;;;3.00;;
63378;SDS011;49509;54.996;73.270;2022-08-19T04:40:56;2.00;;;2.00;;
63378;SDS011;49509;54.996;73.270;2022-08-19T04:43:41;3.00;;;3.00;;
63378;SDS011;49509;54.996;73.270;2022-08-19T04:46:18;2.75;;;2.75;;
63378;SDS011;49509;54.996;73.270;2022-08-19T04:48:45;3.50;;;3.00;;
63378;SDS011;49509;54.996;73.270;2022-08-19T04:51:12;3.00;;;3.00;;
63378;SDS011;49509;54.996;73.270;2022-08-19T04:53:40;4.00;;;4.00;;
63378;SDS011;49509;54.996;73.270;2022-08-19T04:56:09;3.00;;;3.00;;
63378;SDS011;49509;54.996;73.270;2022-08-19T04:58:36;5.00;;;5.00;;
63378;SDS011;49509;54.996;73.270;2022-08-19T05:01:02;3.00;;;3.00;;
63378;SDS011;49509;54.996;73.270;2022-08-19T05:03:37;2.60;;;2.00;;
63378;SDS011;49509;54.996;73.270;2022-08-19T05:06:06;6.20;;;6.20;;
63378;SDS011;49509;54.996;73.270;2022-08-19T05:08:33;5.75;;;5.75;;
63378;SDS011;49509;54.996;73.270;2022-08-19T05:11:15;2.60;;;2.60;;
63378;SDS011;49509;54.996;73.270;2022-08-19T05:13:42;3.40;;;3.40;;
63378;SDS011;49509;54.996;73.270;2022-08-19T05:16:10;2.00;;;1.40;;
63378;SDS011;49509;54.996;73.270;2022-08-19T05:18:37;4.00;;;3.40;;
63378;SDS011;49509;54.996;73.270;2022-08-19T05:21:22;8.50;;;7.50;;
63378;SDS011;49509;54.996;73.270;2022-08-19T05:24:27;2.80;;;2.80;;
63378;SDS011;49509;54.996;73.270;2022-08-19T05:26:54;4.50;;;4.50;;
63378;SDS011;49509;54.996;73.270;2022-08-19T05:29:25;2.00;;;2.00;;
63378;SDS011;49509;54.996;73.270;2022-08-19T05:31:53;3.75;;;3.75;;
63378;SDS011;49509;54.996;73.270;2022-08-19T05:34:20;2.00;;;2.00;;
63378;SDS011;49509;54.996;73.270;2022-08-19T05:36:48;3.00;;;3.00;;
63378;SDS011;49509;54.996;73.270;2022-08-19T05:39:16;2.40;;;2.40;;
63378;SDS011;49509;54.996;73.270;2022-08-19T05:41:48;4.00;;;3.00;;
63378;SDS011;49509;54.996;73.270;2022-08-19T05:44:20;10.50;;;9.75;;
63378;SDS011;49509;54.996;73.270;2022-08-19T05:46:47;2.25;;;2.25;;
63378;SDS011;49509;54.996;73.270;2022-08-19T05:49:15;2.40;;;2.00;;
63378;SDS011;49509;54.996;73.270;2022-08-19T05:51:42;3.20;;;2.00;;
63378;SDS011;49509;54.996;73.270;2022-08-19T05:54:15;1.00;;;1.00;;
63378;SDS011;49509;54.996;73.270;2022-08-19T05:56:46;2.00;;;2.00;;
63378;SDS011;49509;54.996;73.270;2022-08-19T05:59:14;2.50;;;2.50;;
63378;SDS011;49509;54.996;73.270;2022-08-19T06:01:42;1.00;;;1.00;;
63378;SDS011;49509;54.996;73.270;2022-08-19T06:04:11;4.00;;;4.00;;
63378;SDS011;49509;54.996;73.270;2022-08-19T06:06:43;2.50;;;2.50;;
63378;SDS011;49509;54.996;73.270;2022-08-19T06:09:09;2.00;;;2.00;;
63378;SDS011;49509;54.996;73.270;2022-08-19T06:11:43;2.00;;;2.00;;
63378;SDS011;49509;54.996;73.270;2022-08-19T06:14:21;6.50;;;6.50;;
63378;SDS011;49509;54.996;73.270;2022-08-19T06:16:51;4.00;;;2.25;;
63378;SDS011;49509;54.996;73.270;2022-08-19T06:19:19;2.00;;;2.00;;
63378;SDS011;49509;54.996;73.270;2022-08-19T06:21:55;3.00;;;3.00;;
63378;SDS011;49509;54.996;73.270;2022-08-19T06:24:26;2.60;;;2.60;;
63378;SDS011;49509;54.996;73.270;2022-08-19T06:26:53;2.20;;;2.20;;
63378;SDS011;49509;54.996;73.270;2022-08-19T06:29:21;4.00;;;3.20;;
63378;SDS011;49509;54.996;73.270;2022-08-19T06:31:56;4.00;;;4.00;;
63378;SDS011;49509;54.996;73.270;2022-08-19T06:34:23;3.60;;;3.60;;
63378;SDS011;49509;54.996;73.270;2022-08-19T06:36:50;2.00;;;2.00;;
63378;SDS011;49509;54.996;73.270;2022-08-19T06:39:20;1.60;;;1.60;;
63378;SDS011;49509;54.996;73.270;2022-08-19T06:41:47;3.80;;;3.80;;
63378;SDS011;49509;54.996;73.270;2022-08-19T06:44:18;3.00;;;3.00;;
63378;SDS011;49509;54.996;73.270;2022-08-19T06:46:55;4.60;;;3.60;;
63378;SDS011;49509;54.996;73.270;2022-08-19T06:49:26;6.20;;;6.20;;
63378;SDS011;49509;54.996;73.270;2022-08-19T06:51:57;4.00;;;4.00;;
63378;SDS011;49509;54.996;73.270;2022-08-19T06:54:24;4.60;;;3.40;;
63378;SDS011;49509;54.996;73.270;2022-08-19T06:56:54;1.80;;;1.80;;
63378;SDS011;49509;54.996;73.270;2022-08-19T06:59:21;2.00;;;2.00;;
63378;SDS011;49509;54.996;73.270;2022-08-19T07:01:49;3.00;;;3.00;;
63378;SDS011;49509;54.996;73.270;2022-08-19T07:04:18;2.60;;;2.60;;
63378;SDS011;49509;54.996;73.270;2022-08-19T07:06:45;4.40;;;4.40;;
63378;SDS011;49509;54.996;73.270;2022-08-19T07:09:22;2.50;;;2.50;;
63378;SDS011;49509;54.996;73.270;2022-08-19T07:11:52;3.00;;;3.00;;
63378;SDS011;49509;54.996;73.270;2022-08-19T07:14:25;2.25;;;1.50;;
63378;SDS011;49509;54.996;73.270;2022-08-19T07:16:58;1.75;;;1.75;;
63378;SDS011;49509;54.996;73.270;2022-08-19T07:19:25;3.75;;;3.75;;
63378;SDS011;49509;54.996;73.270;2022-08-19T07:21:55;3.75;;;2.50;;
63378;SDS011;49509;54.996;73.270;2022-08-19T07:24:29;2.80;;;2.80;;
63378;SDS011;49509;54.996;73.270;2022-08-19T07:26:57;5.80;;;5.80;;
63378;SDS011;49509;54.996;73.270;2022-08-19T07:29:26;5.00;;;5.00;;
63378;SDS011;49509;54.996;73.270;2022-08-19T07:31:53;6.00;;;6.00;;
63378;SDS011;49509;54.996;73.270;2022-08-19T07:34:23;6.20;;;5.20;;
63378;SDS011;49509;54.996;73.270;2022-08-19T07:36:49;3.80;;;3.80;;
63378;SDS011;49509;54.996;73.270;2022-08-19T07:39:21;3.75;;;3.75;;
63378;SDS011;49509;54.996;73.270;2022-08-19T07:41:48;5.00;;;5.00;;
63378;SDS011;49509;54.996;73.270;2022-08-19T07:44:16;4.50;;;4.50;;
63378;SDS011;49509;54.996;73.270;2022-08-19T07:46:46;6.00;;;6.00;;
63378;SDS011;49509;54.996;73.270;2022-08-19T07:49:13;8.00;;;6.50;;
63378;SDS011;49509;54.996;73.270;2022-08-19T07:51:57;7.75;;;7.25;;
63378;SDS011;49509;54.996;73.270;2022-08-19T07:54:25;5.00;;;5.00;;
63378;SDS011;49509;54.996;73.270;2022-08-19T07:56:53;3.50;;;3.50;;
63378;SDS011;49509;54.996;73.270;2022-08-19T07:59:26;4.00;;;4.00;;
63378;SDS011;49509;54.996;73.270;2022-08-19T08:01:55;4.50;;;4.50;;
63378;SDS011;49509;54.996;73.270;2022-08-19T08:04:34;6.50;;;6.25;;
63378;SDS011;49509;54.996;73.270;2022-08-19T08:07:19;4.25;;;4.25;;
63378;SDS011;49509;54.996;73.270;2022-08-19T08:10:10;5.00;;;5.00;;
63378;SDS011;49509;54.996;73.270;2022-08-19T08:12:45;6.00;;;4.75;;
63378;SDS011;49509;54.996;73.270;2022-08-19T08:15:12;6.25;;;6.25;;
63378;SDS011;49509;54.996;73.270;2022-08-19T08:17:45;6.00;;;5.00;;
63378;SDS011;49509;54.996;73.270;2022-08-19T08:20:12;5.75;;;5.75;;
63378;SDS011;49509;54.996;73.270;2022-08-19T08:22:42;5.75;;;5.50;;
63378;SDS011;49509;54.996;73.270;2022-08-19T08:25:27;6.25;;;6.25;;
63378;SDS011;49509;54.996;73.270;2022-08-19T08:27:56;7.50;;;6.00;;
63378;SDS011;49509;54.996;73.270;2022-08-19T08:30:27;5.00;;;5.00;;
63378;SDS011;49509;54.996;73.270;2022-08-19T08:32:54;5.00;;;5.00;;
63378;SDS011;49509;54.996;73.270;2022-08-19T08:35:23;7.00;;;7.00;;
63378;SDS011;49509;54.996;73.270;2022-08-19T08:37:52;6.25;;;6.25;;
63378;SDS011;49509;54.996;73.270;2022-08-19T08:40:25;5.00;;;5.00;;
63378;SDS011;49509;54.996;73.270;2022-08-19T08:43:11;7.00;;;5.00;;
63378;SDS011;49509;54.996;73.270;2022-08-19T08:45:42;5.60;;;4.80;;
63378;SDS011;49509;54.996;73.270;2022-08-19T08:51:06;5.00;;;5.00;;
63378;SDS011;49509;54.996;73.270;2022-08-19T08:53:36;6.75;;;6.75;;
63378;SDS011;49509;54.996;73.270;2022-08-19T08:56:04;5.75;;;5.25;;
63378;SDS011;49509;54.996;73.270;2022-08-19T08:58:42;6.00;;;6.00;;
63378;SDS011;49509;54.996;73.270;2022-08-19T09:01:17;5.00;;;5.00;;
63378;SDS011;49509;54.996;73.270;2022-08-19T09:03:44;8.00;;;7.25;;
63378;SDS011;49509;54.996;73.270;2022-08-19T09:06:13;3.00;;;3.00;;
63378;SDS011;49509;54.996;73.270;2022-08-19T09:11:50;7.00;;;5.00;;
63378;SDS011;49509;54.996;73.270;2022-08-19T09:16:59;3.25;;;3.25;;
63378;SDS011;49509;54.996;73.270;2022-08-19T09:22:16;4.75;;;4.75;;
63378;SDS011;49509;54.996;73.270;2022-08-19T09:24:52;5.00;;;5.00;;
63378;SDS011;49509;54.996;73.270;2022-08-19T09:27:23;6.00;;;5.75;;
63378;SDS011;49509;54.996;73.270;2022-08-19T09:29:50;2.75;;;2.75;;
63378;SDS011;49509;54.996;73.270;2022-08-19T09:32:17;5.00;;;5.00;;
63378;SDS011;49509;54.996;73.270;2022-08-19T09:34:46;7.25;;;7.25;;
63378;SDS011;49509;54.996;73.270;2022-08-19T09:37:15;5.50;;;5.50;;
63378;SDS011;49509;54.996;73.270;2022-08-19T09:39:43;6.25;;;5.00;;
63378;SDS011;49509;54.996;73.270;2022-08-19T09:42:22;7.75;;;6.25;;
63378;SDS011;49509;54.996;73.270;2022-08-19T09:44:52;6.50;;;6.00;;
63378;SDS011;49509;54.996;73.270;2022-08-19T09:47:19;7.25;;;7.00;;
63378;SDS011;49509;54.996;73.270;2022-08-19T09:49:46;11.75;;;11.75;;
63378;SDS011;49509;54.996;73.270;2022-08-19T09:52:20;10.00;;;8.25;;
63378;SDS011;49509;54.996;73.270;2022-08-19T09:54:46;9.75;;;9.75;;
63378;SDS011;49509;54.996;73.270;2022-08-19T09:57:13;13.00;;;12.50;;
63378;SDS011;49509;54.996;73.270;2022-08-19T09:59:48;10.75;;;10.75;;
63378;SDS011;49509;54.996;73.270;2022-08-19T10:02:14;9.75;;;8.75;;
63378;SDS011;49509;54.996;73.270;2022-08-19T10:04:41;11.00;;;10.50;;
63378;SDS011;49509;54.996;73.270;2022-08-19T10:07:31;10.75;;;10.50;;
63378;SDS011;49509;54.996;73.270;2022-08-19T10:10:02;9.25;;;8.75;;
63378;SDS011;49509;54.996;73.270;2022-08-19T10:12:28;8.25;;;7.25;;
63378;SDS011;49509;54.996;73.270;2022-08-19T10:14:54;9.75;;;9.50;;
63378;SDS011;49509;54.996;73.270;2022-08-19T10:17:22;10.00;;;10.00;;
63378;SDS011;49509;54.996;73.270;2022-08-19T10:19:50;14.25;;;13.75;;
63378;SDS011;49509;54.996;73.270;2022-08-19T10:22:26;7.25;;;7.25;;
63378;SDS011;49509;54.996;73.270;2022-08-19T10:24:58;7.75;;;7.75;;
63378;SDS011;49509;54.996;73.270;2022-08-19T10:27:24;10.25;;;8.50;;
63378;SDS011;49509;54.996;73.270;2022-08-19T10:29:50;7.50;;;6.75;;
63378;SDS011;49509;54.996;73.270;2022-08-19T10:32:17;6.00;;;6.00;;
63378;SDS011;49509;54.996;73.270;2022-08-19T10:34:43;10.75;;;10.00;;
63378;SDS011;49509;54.996;73.270;2022-08-19T10:37:10;7.50;;;7.00;;
63378;SDS011;49509;54.996;73.270;2022-08-19T10:39:37;23.25;;;20.75;;
63378;SDS011;49509;54.996;73.270;2022-08-19T10:42:05;11.00;;;10.50;;
63378;SDS011;49509;54.996;73.270;2022-08-19T10:44:32;9.50;;;9.50;;
63378;SDS011;49509;54.996;73.270;2022-08-19T10:46:59;8.00;;;8.00;;
63378;SDS011;49509;54.996;73.270;2022-08-19T10:49:26;5.50;;;4.75;;
63378;SDS011;49509;54.996;73.270;2022-08-19T10:51:59;11.25;;;10.00;;
63378;SDS011;49509;54.996;73.270;2022-08-19T10:54:44;8.50;;;8.50;;
63378;SDS011;49509;54.996;73.270;2022-08-19T10:57:30;7.25;;;6.25;;
63378;SDS011;49509;54.996;73.270;2022-08-19T10:59:56;7.50;;;6.25;;
63378;SDS011;49509;54.996;73.270;2022-08-19T11:02:24;7.50;;;7.50;;
63378;SDS011;49509;54.996;73.270;2022-08-19T11:04:56;6.00;;;6.00;;
63378;SDS011;49509;54.996;73.270;2022-08-19T11:07:23;5.00;;;5.00;;
63378;SDS011;49509;54.996;73.270;2022-08-19T11:09:54;6.50;;;6.50;;
63378;SDS011;49509;54.996;73.270;2022-08-19T11:12:21;8.50;;;8.50;;
63378;SDS011;49509;54.996;73.270;2022-08-19T11:14:47;8.25;;;6.75;;
63378;SDS011;49509;54.996;73.270;2022-08-19T11:17:21;22.50;;;21.75;;
63378;SDS011;49509;54.996;73.270;2022-08-19T11:19:49;20.25;;;18.50;;
63378;SDS011;49509;54.996;73.270;2022-08-19T11:22:19;11.25;;;10.50;;
63378;SDS011;49509;54.996;73.270;2022-08-19T11:24:45;9.75;;;9.00;;
63378;SDS011;49509;54.996;73.270;2022-08-19T11:27:12;6.50;;;5.75;;
63378;SDS011;49509;54.996;73.270;2022-08-19T11:29:40;6.75;;;6.75;;
63378;SDS011;49509;54.996;73.270;2022-08-19T11:32:07;10.50;;;8.50;;
63378;SDS011;49509;54.996;73.270;2022-08-19T11:34:40;8.50;;;7.50;;
63378;SDS011;49509;54.996;73.270;2022-08-19T11:37:06;9.00;;;9.00;;
63378;SDS011;49509;54.996;73.270;2022-08-19T11:39:35;6.75;;;6.75;;
63378;SDS011;49509;54.996;73.270;2022-08-19T11:42:04;6.00;;;5.00;;
63378;SDS011;49509;54.996;73.270;2022-08-19T11:44:49;7.25;;;7.25;;
63378;SDS011;49509;54.996;73.270;2022-08-19T11:47:16;11.00;;;11.00;;
63378;SDS011;49509;54.996;73.270;2022-08-19T11:49:43;7.00;;;7.00;;
63378;SDS011;49509;54.996;73.270;2022-08-19T11:52:09;7.50;;;6.75;;
63378;SDS011;49509;54.996;73.270;2022-08-19T11:54:39;7.50;;;6.50;;
63378;SDS011;49509;54.996;73.270;2022-08-19T11:57:05;7.25;;;6.25;;
63378;SDS011;49509;54.996;73.270;2022-08-19T11:59:47;8.00;;;7.50;;
63378;SDS011;49509;54.996;73.270;2022-08-19T12:02:13;9.00;;;8.00;;
63378;SDS011;49509;54.996;73.270;2022-08-19T12:04:41;14.50;;;11.25;;
63378;SDS011;49509;54.996;73.270;2022-08-19T12:07:07;9.50;;;8.50;;
63378;SDS011;49509;54.996;73.270;2022-08-19T12:09:34;9.25;;;8.50;;
63378;SDS011;49509;54.996;73.270;2022-08-19T12:12:00;12.00;;;11.00;;
63378;SDS011;49509;54.996;73.270;2022-08-19T12:14:28;17.00;;;16.75;;
63378;SDS011;49509;54.996;73.270;2022-08-19T12:16:58;13.75;;;13.75;;
63378;SDS011;49509;54.996;73.270;2022-08-19T12:19:24;15.25;;;12.75;;
63378;SDS011;49509;54.996;73.270;2022-08-19T12:22:01;8.00;;;8.00;;
63378;SDS011;49509;54.996;73.270;2022-08-19T12:24:32;8.25;;;8.25;;
63378;SDS011;49509;54.996;73.270;2022-08-19T12:26:58;7.75;;;7.25;;
63378;SDS011;49509;54.996;73.270;2022-08-19T12:29:27;7.00;;;7.00;;
63378;SDS011;49509;54.996;73.270;2022-08-19T12:31:57;5.00;;;5.00;;
63378;SDS011;49509;54.996;73.270;2022-08-19T12:34:29;6.50;;;5.50;;
63378;SDS011;49509;54.996;73.270;2022-08-19T12:36:58;8.25;;;7.25;;
63378;SDS011;49509;54.996;73.270;2022-08-19T12:39:28;9.25;;;8.25;;
63378;SDS011;49509;54.996;73.270;2022-08-19T12:41:56;15.75;;;15.25;;
63378;SDS011;49509;54.996;73.270;2022-08-19T12:44:25;12.25;;;10.00;;
63378;SDS011;49509;54.996;73.270;2022-08-19T12:46:59;10.00;;;10.00;;
63378;SDS011;49509;54.996;73.270;2022-08-19T12:49:27;12.50;;;8.50;;
63378;SDS011;49509;54.996;73.270;2022-08-19T12:51:53;7.00;;;6.25;;
63378;SDS011;49509;54.996;73.270;2022-08-19T12:54:20;6.25;;;6.25;;
63378;SDS011;49509;54.996;73.270;2022-08-19T12:56:47;7.75;;;7.00;;
63378;SDS011;49509;54.996;73.270;2022-08-19T12:59:15;7.00;;;6.50;;
63378;SDS011;49509;54.996;73.270;2022-08-19T13:01:45;6.00;;;6.00;;
63378;SDS011;49509;54.996;73.270;2022-08-19T13:04:14;7.00;;;6.50;;
63378;SDS011;49509;54.996;73.270;2022-08-19T13:06:42;10.00;;;8.50;;
63378;SDS011;49509;54.996;73.270;2022-08-19T13:09:09;5.50;;;5.50;;
63378;SDS011;49509;54.996;73.270;2022-08-19T13:11:45;6.00;;;5.00;;
63378;SDS011;49509;54.996;73.270;2022-08-19T13:14:13;6.00;;;6.00;;
63378;SDS011;49509;54.996;73.270;2022-08-19T13:16:40;7.75;;;7.00;;
63378;SDS011;49509;54.996;73.270;2022-08-19T13:19:08;5.25;;;5.00;;
63378;SDS011;49509;54.996;73.270;2022-08-19T13:21:51;8.00;;;7.00;;
63378;SDS011;49509;54.996;73.270;2022-08-19T13:24:20;7.75;;;7.75;;
63378;SDS011;49509;54.996;73.270;2022-08-19T13:26:46;4.25;;;4.25;;
63378;SDS011;49509;54.996;73.270;2022-08-19T13:29:18;7.25;;;7.25;;
63378;SDS011;49509;54.996;73.270;2022-08-19T13:32:04;8.00;;;6.75;;
63378;SDS011;49509;54.996;73.270;2022-08-19T13:35:00;6.00;;;6.00;;
63378;SDS011;49509;54.996;73.270;2022-08-19T13:37:36;6.00;;;6.00;;
63378;SDS011;49509;54.996;73.270;2022-08-19T13:40:19;7.00;;;6.00;;
63378;SDS011;49509;54.996;73.270;2022-08-19T13:42:59;8.00;;;7.00;;
63378;SDS011;49509;54.996;73.270;2022-08-19T13:45:31;7.00;;;7.00;;
63378;SDS011;49509;54.996;73.270;2022-08-19T13:48:02;10.25;;;8.50;;
63378;SDS011;49509;54.996;73.270;2022-08-19T13:50:33;7.75;;;7.75;;
63378;SDS011;49509;54.996;73.270;2022-08-19T13:53:10;6.50;;;6.50;;
63378;SDS011;49509;54.996;73.270;2022-08-19T13:56:04;10.00;;;9.00;;
63378;SDS011;49509;54.996;73.270;2022-08-19T13:58:41;13.75;;;13.75;;
63378;SDS011;49509;54.996;73.270;2022-08-19T14:01:09;8.25;;;8.25;;
63378;SDS011;49509;54.996;73.270;2022-08-19T14:03:36;10.75;;;10.50;;
63378;SDS011;49509;54.996;73.270;2022-08-19T14:06:06;11.00;;;10.00;;
63378;SDS011;49509;54.996;73.270;2022-08-19T14:08:33;11.25;;;10.50;;
63378;SDS011;49509;54.996;73.270;2022-08-19T14:11:01;9.25;;;8.50;;
63378;SDS011;49509;54.996;73.270;2022-08-19T14:13:30;8.25;;;8.25;;
63378;SDS011;49509;54.996;73.270;2022-08-19T14:16:09;11.00;;;9.75;;
63378;SDS011;49509;54.996;73.270;2022-08-19T14:18:45;8.75;;;8.75;;
63378;SDS011;49509;54.996;73.270;2022-08-19T14:21:16;9.75;;;9.00;;
63378;SDS011;49509;54.996;73.270;2022-08-19T14:23:56;10.00;;;10.00;;
63378;SDS011;49509;54.996;73.270;2022-08-19T14:26:26;12.25;;;11.00;;
63378;SDS011;49509;54.996;73.270;2022-08-19T14:29:01;12.75;;;12.25;;
63378;SDS011;49509;54.996;73.270;2022-08-19T14:31:28;9.25;;;9.25;;
63378;SDS011;49509;54.996;73.270;2022-08-19T14:33:58;11.50;;;10.00;;
63378;SDS011;49509;54.996;73.270;2022-08-19T14:36:25;46.25;;;39.50;;
63378;SDS011;49509;54.996;73.270;2022-08-19T14:39:00;14.75;;;11.25;;
63378;SDS011;49509;54.996;73.270;2022-08-19T14:41:27;9.75;;;9.75;;
63378;SDS011;49509;54.996;73.270;2022-08-19T14:43:54;11.25;;;8.75;;
63378;SDS011;49509;54.996;73.270;2022-08-19T14:46:27;10.25;;;10.25;;
63378;SDS011;49509;54.996;73.270;2022-08-19T14:48:54;12.00;;;11.50;;
63378;SDS011;49509;54.996;73.270;2022-08-19T14:51:22;8.00;;;8.00;;
63378;SDS011;49509;54.996;73.270;2022-08-19T14:53:49;10.25;;;10.25;;
63378;SDS011;49509;54.996;73.270;2022-08-19T14:56:18;14.25;;;12.50;;
63378;SDS011;49509;54.996;73.270;2022-08-19T14:58:44;10.25;;;10.25;;
63378;SDS011;49509;54.996;73.270;2022-08-19T15:01:15;10.50;;;9.00;;
63378;SDS011;49509;54.996;73.270;2022-08-19T15:03:41;11.75;;;10.25;;
63378;SDS011;49509;54.996;73.270;2022-08-19T15:06:08;6.00;;;5.50;;